Overview Statistics Trail Chart Weather Telemetry Raw packets
 

This is the latest recevied weather packets stored in our database for station/object WX5RP. If no packets are shown the sender has not sent any weather packets the latest 10 day(s).

<< 31 32 33 34 35 36 37 >>
Time Temp. Humidity Pressure Rain* Wind** Luminosity Snow
1777528518 8.33° C 54% 1020.9 hPa 0 mm - 0 W/m² -
1777527917 8.33° C 52% 1020.9 hPa 0 mm - 0 W/m² -
1777527317 8.89° C 49% 1020.4 hPa 0 mm - 0 W/m² -
1777526717 9.44° C 48% 1020.3 hPa 0 mm - 0 W/m² -
1777526117 9.44° C 48% 1020 hPa 0 mm - 0 W/m² -
1777525517 9.44° C 47% 1020.6 hPa 0 mm - 0 W/m² -
1777524918 9.44° C 48% 1020.6 hPa 0 mm - 0 W/m² -
1777524316 8.89° C 51% 1020.3 hPa 0 mm - 0 W/m² -
1777523718 8.89° C 51% 1020.3 hPa 0 mm - 0 W/m² -
1777523116 9.44° C 49% 1020.2 hPa 0 mm - 0 W/m² -
1777522517 8.89° C 50% 1019.9 hPa 0 mm - 0 W/m² -
1777521922 8.89° C 47% 1020.2 hPa 0 mm - 0 W/m² -
1777521317 8.33° C 44% 1019.7 hPa 0 mm - 0 W/m² -
1777520716 8.33° C 44% 1019.7 hPa 0 mm - 0 W/m² -
1777520116 8.89° C 43% 1019.2 hPa 0 mm - 0 W/m² -
1777519516 9.44° C 42% 1018.6 hPa 0 mm - 0 W/m² -
1777518916 10.56° C 43% 1018.7 hPa 0 mm - 0 W/m² -
1777518316 11.11° C 37% 1019.4 hPa 0 mm - 2 W/m² -
1777517716 11.67° C 39% 1018.5 hPa 0 mm - 9 W/m² -
1777517116 12.78° C 38% 1018.8 hPa 0 mm - 13 W/m² -
1777516516 13.89° C 35% 1018.5 hPa 0 mm - 19 W/m² -
1777515916 15.56° C 33% 1018 hPa 0 mm - 32 W/m² -
1777515316 16.67° C 28% 1018 hPa 0 mm - 41 W/m² -
1777514716 17.22° C 22% 1019.3 hPa 0 mm - 45 W/m² -
1777514116 17.22° C 21% 1019.1 hPa 0 mm - 90 W/m² -

* Rain latest hour (hover to see other rain measurements)
** Current wind speed in m/s (hover to see current wind gust speed)